createdAt,value
2023-02-09T00:01:19.337Z,47.7275301951593
2023-02-09T00:04:16.446Z,47.645032631828904
2023-02-09T00:07:16.594Z,47.90343152272726
2023-02-09T00:11:19.415Z,48.07876342845291
2023-02-09T00:14:21.603Z,48.2340982409339
2023-02-09T00:17:16.459Z,48.32201759723615
2023-02-09T00:21:16.588Z,48.55266003507504
2023-02-09T00:24:17.384Z,48.37701167898837
2023-02-09T00:27:17.068Z,48.39986614791654
2023-02-09T00:31:15.961Z,48.470489598745246
2023-02-09T00:34:16.720Z,48.58573893942291
2023-02-09T00:37:16.282Z,48.22276855989798
2023-02-09T00:41:16.534Z,48.393232207042644
2023-02-09T00:44:17.020Z,48.530460657594745
2023-02-09T00:47:16.448Z,48.60884978548412
2023-02-09T00:51:16.006Z,48.57536449221198
2023-02-09T00:54:17.300Z,48.52131456803896
2023-02-09T00:57:16.388Z,48.323845157025424
2023-02-09T01:01:16.613Z,48.3673633597411
2023-02-09T01:04:16.858Z,48.47128963603866
2023-02-09T01:07:16.717Z,48.340559487790586
2023-02-09T01:11:16.895Z,48.32915869442211
2023-02-09T01:14:17.395Z,48.06991011040481
2023-02-09T01:17:16.511Z,48.19705474197283
2023-02-09T01:21:17.902Z,48.146236548850986
2023-02-09T01:24:16.170Z,48.36134240002419
2023-02-09T01:27:16.402Z,48.57522635953112
2023-02-09T01:31:21.319Z,48.52020459420747
2023-02-09T01:34:17.712Z,48.42084758041615
2023-02-09T01:37:16.229Z,48.282691545512954
2023-02-09T01:41:16.913Z,48.251067869148486
2023-02-09T01:51:17.001Z,48.05673188363294
2023-02-09T01:54:20.259Z,47.78171378768759
2023-02-09T01:57:21.831Z,47.75857102417139
2023-02-09T02:01:16.989Z,47.73112802689786
2023-02-09T02:04:16.720Z,47.7806057988943
2023-02-09T02:07:24.416Z,47.67567538922765
2023-02-09T02:11:17.423Z,47.477301550422254
2023-02-09T02:14:27.937Z,47.500337145429725
2023-02-09T02:17:33.118Z,47.56617122594187
2023-02-09T02:22:43.198Z,47.51122239547651
2023-02-09T02:25:22.380Z,47.48867699963654
2023-02-09T02:27:29.540Z,47.400984359743994
2023-02-09T02:32:30.295Z,47.53942214601575
2023-02-09T02:34:23.181Z,47.604794668113286
2023-02-09T02:37:34.260Z,47.346836847156595
2023-02-09T02:41:24.946Z,47.732279981132265
2023-02-09T02:44:17.796Z,47.68919778450948
2023-02-09T02:47:19.870Z,47.776483754217985
2023-02-09T02:51:21.313Z,47.67139281653863
2023-02-09T02:54:20.256Z,47.853364238667524
2023-02-09T02:57:21.156Z,47.84821593987934
2023-02-09T03:01:20.349Z,47.49492565413631
2023-02-09T03:04:17.071Z,47.38992533942429
2023-02-09T03:07:17.484Z,47.27942910433926
2023-02-09T03:11:17.710Z,47.136114781798504
2023-02-09T03:14:28.948Z,46.97659618814419
2023-02-09T03:17:25.827Z,46.932853694815016
2023-02-09T03:21:22.720Z,46.75592531245596
2023-02-09T03:24:26.058Z,46.79908427413213
2023-02-09T03:27:21.443Z,46.71744824843079
2023-02-09T03:31:16.721Z,46.74521647230821
2023-02-09T03:34:17.256Z,46.706382029923994
2023-02-09T03:37:17.300Z,46.66710103235143
2023-02-09T03:41:15.924Z,46.634482610529034
2023-02-09T03:44:32.118Z,46.69496936233091
2023-02-09T03:47:16.345Z,46.46239719747037
2023-02-09T03:51:16.591Z,46.31851601321841
2023-02-09T03:54:16.507Z,46.35601294896575
2023-02-09T03:57:16.311Z,46.014537040004896
2023-02-09T04:01:15.866Z,46.0364031372676
2023-02-09T04:04:16.126Z,45.78261790311007
2023-02-09T04:07:16.411Z,45.92045433193361
2023-02-09T04:11:15.787Z,46.05795197164557
2023-02-09T04:14:16.590Z,46.118330578466924
2023-02-09T04:17:16.356Z,46.33894951261326
2023-02-09T04:21:16.174Z,46.28943708283806
2023-02-09T04:24:16.895Z,46.36057329451888
2023-02-09T04:27:16.778Z,46.658034178945016
2023-02-09T04:31:16.799Z,46.57605819189973
2023-02-09T04:34:16.969Z,46.69719995801908
2023-02-09T04:37:16.793Z,46.465122733396015
2023-02-09T04:41:15.785Z,46.73379507042639
2023-02-09T04:44:16.208Z,47.02083845701445
2023-02-09T04:47:16.103Z,46.87022831379616
2023-02-09T04:51:16.135Z,46.80942391719605
2023-02-09T04:54:16.399Z,46.81473561886069
2023-02-09T05:01:20.069Z,47.006900862718254
2023-02-09T05:04:16.845Z,46.857783610831916
2023-02-09T05:07:16.874Z,46.982764305140634
2023-02-09T05:11:16.309Z,47.30389355463804
2023-02-09T05:14:17.636Z,46.94945974826114
2023-02-09T05:17:21.333Z,47.03730115343449
2023-02-09T05:21:16.160Z,47.05880277264356
2023-02-09T05:24:16.370Z,46.84928751676235
2023-02-09T05:27:16.700Z,47.11265210733953
2023-02-09T05:31:16.929Z,47.35514938331658
2023-02-09T05:34:16.523Z,47.22794521410089
2023-02-09T05:37:16.776Z,46.94756794318745
2023-02-09T05:42:16.978Z,47.16091784883433
2023-02-09T05:44:16.691Z,47.270970953121555
2023-02-09T05:47:20.533Z,46.880662341553645
2023-02-09T05:51:16.365Z,46.90147466970359
2023-02-09T05:54:16.744Z,46.85163679135484
2023-02-09T05:57:17.534Z,46.95157214560642
2023-02-09T06:01:16.442Z,46.51192532792229
2023-02-09T06:04:16.572Z,46.56139645093836
2023-02-09T06:07:16.404Z,46.74326882392047
2023-02-09T06:11:16.268Z,46.91958016851854
2023-02-09T06:14:16.826Z,46.85319896069313
2023-02-09T06:17:16.516Z,46.92373516433592
2023-02-09T06:21:16.540Z,46.87544790079687
2023-02-09T06:24:17.277Z,46.952554517692256
2023-02-09T06:27:16.752Z,46.88664587894958
2023-02-09T06:31:16.194Z,46.803790785465246
2023-02-09T06:34:16.310Z,46.70052083775185
2023-02-09T06:37:16.367Z,46.954314570209156
2023-02-09T06:41:15.851Z,47.15335092318302
2023-02-09T06:44:16.045Z,47.04336639047949
2023-02-09T06:47:15.874Z,46.78405997659619
2023-02-09T06:51:16.797Z,47.0537926660535
2023-02-09T06:54:16.914Z,46.96712277163035
2023-02-09T06:57:16.740Z,46.906343163585554
2023-02-09T07:01:16.175Z,47.10547404404783
2023-02-09T07:04:16.345Z,47.27083375786097
2023-02-09T07:07:16.431Z,47.40463423479597
2023-02-09T07:11:17.825Z,47.68175554520155
2023-02-09T07:14:16.557Z,47.80468475094707
2023-02-09T07:17:16.621Z,47.601127345829966
2023-02-09T07:21:18.709Z,47.783555346379345
2023-02-09T07:24:16.933Z,47.90045407722398
2023-02-09T07:27:17.508Z,47.9557342639673
2023-02-09T07:31:16.867Z,48.133718122693395
2023-02-09T07:34:16.717Z,47.84074921590859
2023-02-09T07:37:16.880Z,47.907882242479396
2023-02-09T07:41:19.128Z,47.87107466649511
2023-02-09T07:44:16.662Z,47.93354311337655
2023-02-09T07:47:16.586Z,47.343803835093624
2023-02-09T07:51:17.723Z,47.521324160170636
2023-02-09T07:54:16.116Z,47.169630007191905
2023-02-09T07:57:16.265Z,47.01027423455843
2023-02-09T08:01:18.434Z,46.537660212145305
2023-02-09T08:04:17.655Z,46.75401888948282
2023-02-09T08:07:17.597Z,46.64406725489952
2023-02-09T08:11:19.244Z,46.18200910854456
2023-02-09T08:14:20.124Z,46.000704486286175
2023-02-09T08:17:24.487Z,45.92493669830645
2023-02-09T08:21:17.403Z,45.65627002380724
2023-02-09T08:24:19.266Z,45.63522272035157
2023-02-09T08:27:16.393Z,45.77499642358317
2023-02-09T08:31:18.285Z,45.25086557117557
2023-02-09T08:34:16.605Z,45.40725642297175
2023-02-09T08:37:16.625Z,45.14842336632555
2023-02-09T08:41:17.446Z,44.628456175268866
2023-02-09T08:44:16.197Z,44.69621649561057
2023-02-09T08:47:16.309Z,44.20368179694957
2023-02-09T08:51:16.854Z,43.95039853988435
2023-02-09T08:54:16.638Z,43.83522866494748
2023-02-09T08:57:16.979Z,43.936143746545675
2023-02-09T09:01:17.323Z,43.31597014906535
2023-02-09T09:04:17.339Z,43.43387512209852
2023-02-09T09:07:17.072Z,42.907319312791785
2023-02-09T09:11:15.906Z,42.75313341177838
2023-02-09T09:14:16.226Z,42.543049150583585
2023-02-09T09:17:16.560Z,42.72197794299608
2023-02-09T09:21:17.884Z,41.894752031065224
2023-02-09T09:24:17.077Z,42.35192794643478
2023-02-09T09:27:16.689Z,42.2863801568797
2023-02-09T09:31:17.996Z,42.254351536041185
2023-02-09T09:34:16.654Z,42.14432526650805
2023-02-09T09:37:16.432Z,42.39072871716943
2023-02-09T09:41:21.013Z,42.57115645957376
2023-02-09T09:44:27.056Z,42.61693716727623
2023-02-09T09:47:21.402Z,41.9606513397997
2023-02-09T09:51:19.820Z,41.560573781961864
2023-02-09T09:54:20.400Z,41.690043219175024
2023-02-09T09:57:19.977Z,41.85302843420027
2023-02-09T10:01:18.975Z,41.502741816940244
2023-02-09T10:04:19.552Z,41.64938267984296
2023-02-09T10:07:20.832Z,41.85757161503236
2023-02-09T10:11:20.133Z,41.24441190408543
2023-02-09T10:14:16.855Z,40.6583550320195
2023-02-09T10:17:16.927Z,40.357022796762884
2023-02-09T10:21:17.670Z,40.15676495032481
2023-02-09T10:24:22.803Z,40.39271480873499
2023-02-09T10:27:26.306Z,40.063228913209194
2023-02-09T10:31:22.217Z,39.31864358280018
2023-02-09T10:34:19.611Z,39.868400390379016
2023-02-09T10:37:20.512Z,40.250330481707344
2023-02-09T10:41:16.690Z,39.880914596914124
2023-02-09T10:44:21.615Z,39.623483566743026
2023-02-09T10:47:27.417Z,38.83233398733405
2023-02-09T10:51:22.276Z,38.68093222049313
2023-02-09T10:54:20.629Z,38.23152997498055
2023-02-09T10:57:24.438Z,38.29900956733287
2023-02-09T11:01:21.787Z,38.68708854051782
2023-02-09T11:04:20.046Z,37.747817054501525
2023-02-09T11:07:22.056Z,37.68578714177334
2023-02-09T11:11:27.230Z,37.685636271350724
2023-02-09T11:14:19.042Z,36.94229997651247
2023-02-09T11:17:24.166Z,37.31380076114579
2023-02-09T11:21:25.593Z,36.63186407353945
2023-02-09T11:24:30.216Z,36.845753639815456
2023-02-09T11:27:30.173Z,37.166681969956585
2023-02-09T11:31:40.310Z,37.420069276470144
2023-02-09T11:34:31.435Z,36.59115481949082
2023-02-09T11:37:28.254Z,36.472307214849636
2023-02-09T11:51:20.100Z,36.443166030088854
2023-02-09T11:54:21.425Z,36.26229019420906
2023-02-09T11:57:30.829Z,36.5780517791804
2023-02-09T12:01:29.111Z,35.030432045462994
2023-02-09T12:04:22.964Z,36.12539472454115
2023-02-09T12:07:26.993Z,36.825223107433565
2023-02-09T12:11:29.000Z,36.491363794952875
2023-02-09T12:14:29.776Z,35.94841997317931
2023-02-09T12:17:21.652Z,36.355043606012565
2023-02-09T12:21:27.752Z,36.38254926928593
2023-02-09T12:24:32.133Z,35.975015293168276
2023-02-09T12:27:25.513Z,35.590019510137395
2023-02-09T12:31:21.447Z,36.16108897884102
2023-02-09T12:34:36.755Z,36.16044949483691
2023-02-09T12:37:27.436Z,35.639269530810644
2023-02-09T12:41:17.861Z,35.337898729186016
2023-02-09T12:44:57.456Z,34.64650759104376
2023-02-09T12:47:56.642Z,34.158962432318695
2023-02-09T12:52:20.794Z,33.22976229118069
2023-02-09T12:54:39.245Z,33.00291195775542
2023-02-09T12:57:50.894Z,33.234877503505935
2023-02-09T13:01:16.739Z,32.95134341304361
2023-02-09T13:04:16.581Z,33.02440243753377
2023-02-09T13:07:24.658Z,33.20543150036749
2023-02-09T13:11:26.040Z,34.20264526764084
2023-02-09T13:14:19.372Z,33.550075306391626
2023-02-09T13:17:42.290Z,33.05017632189778
2023-02-09T13:21:27.199Z,32.97047509753955
2023-02-09T13:24:21.915Z,33.395243307330155
2023-02-09T13:27:19.388Z,33.507937866045495
2023-02-09T13:31:25.396Z,33.041218344833545
2023-02-09T13:34:26.460Z,32.68250119900298
2023-02-09T13:37:30.155Z,32.68208652954718
2023-02-09T13:41:28.851Z,32.8461689288497
2023-02-09T13:44:20.112Z,32.5786270505963
2023-02-09T13:47:16.704Z,32.589839496034465
2023-02-09T13:51:18.828Z,32.208226944804935
2023-02-09T13:54:18.963Z,32.787288414137315
2023-02-09T13:57:27.736Z,32.05886922238892
2023-02-09T14:01:22.776Z,31.967544158566774
2023-02-09T14:04:20.983Z,31.887878865483028
2023-02-09T14:07:19.836Z,31.870584919712783
2023-02-09T14:11:41.421Z,31.706010381213286
2023-02-09T14:14:23.476Z,31.12118172610524
2023-02-09T14:17:25.450Z,30.854953777539443
2023-02-09T14:21:23.251Z,30.362806397734882
2023-02-09T14:24:20.956Z,30.32497540370475
2023-02-09T14:27:21.734Z,30.429808160295707
2023-02-09T14:31:19.623Z,30.648322849692285
2023-02-09T14:34:36.864Z,31.149138738843448
2023-02-09T14:37:36.378Z,31.360451403786882
2023-02-09T14:41:26.913Z,31.187787753055122
2023-02-09T14:44:20.042Z,31.56397204135808
2023-02-09T14:47:48.780Z,31.815237798436627
2023-02-09T14:51:17.053Z,32.29390061597995
2023-02-09T14:54:24.341Z,32.21673254904891
2023-02-09T14:57:17.226Z,32.60812456775292
2023-02-09T15:01:16.455Z,32.71807545984725
2023-02-09T15:04:17.281Z,32.88351321998099
2023-02-09T15:07:21.339Z,32.91325398088194
2023-02-09T15:12:25.171Z,33.07268552132824
2023-02-09T15:14:19.416Z,33.30588907032183
2023-02-09T15:17:18.895Z,33.56165017178077
2023-02-09T15:21:16.712Z,33.56815701341236
2023-02-09T15:24:17.108Z,33.43354599313208
2023-02-09T15:27:23.841Z,33.97115039082799
2023-02-09T15:31:16.464Z,34.26568042950547
2023-02-09T15:34:15.986Z,34.15881565228615
2023-02-09T15:37:20.948Z,34.45902443782302
2023-02-09T15:51:17.242Z,34.935300157034284
2023-02-09T15:54:19.451Z,35.12732261194253
2023-02-09T15:57:17.456Z,35.66907785605057
2023-02-09T16:01:18.140Z,35.64697223518888
2023-02-09T16:04:16.721Z,35.84453139236636
2023-02-09T16:07:22.775Z,35.90132698280123
2023-02-09T16:11:19.682Z,36.23971573506832
2023-02-09T16:14:18.373Z,36.11058355775971
2023-02-09T16:17:16.094Z,36.23496730077199
2023-02-09T16:21:22.920Z,36.263634316258155
2023-02-09T16:24:25.551Z,36.18507803366649
2023-02-09T16:27:22.101Z,36.08427006065474
2023-02-09T16:31:15.850Z,36.39964160818896
2023-02-09T16:34:16.284Z,36.377323521647924
2023-02-09T16:37:19.279Z,36.56888752681166
2023-02-09T16:41:47.981Z,36.73227509183601
2023-02-09T16:44:20.926Z,36.79439594421517
2023-02-09T16:47:20.545Z,36.9180647884127
2023-02-09T16:51:16.119Z,37.17085080137375
2023-02-09T16:54:16.519Z,37.546879678197314
2023-02-09T16:57:18.609Z,37.6478986115227
2023-02-09T17:01:19.874Z,38.113220359675985
2023-02-09T17:04:17.098Z,38.337333708490185
2023-02-09T17:07:17.114Z,38.622963509652585
2023-02-09T17:11:19.105Z,38.70123254264489
2023-02-09T17:14:16.935Z,38.8691565469097
2023-02-09T17:17:20.228Z,39.13766856634375
2023-02-09T17:21:21.169Z,39.461903572640686
2023-02-09T17:24:17.246Z,39.56796677848793
2023-02-09T17:27:16.671Z,39.72430318583194
2023-02-09T17:31:20.783Z,40.0257797213432
2023-02-09T17:34:16.869Z,40.27153918360804
2023-02-09T17:37:16.896Z,40.43355612299059
2023-02-09T17:41:18.506Z,40.68413970356585
2023-02-09T17:44:29.056Z,40.795440724189824
2023-02-09T17:47:18.988Z,41.207999886511764
2023-02-09T17:51:20.087Z,41.46410839924344
2023-02-09T17:54:18.866Z,41.45832080987381
2023-02-09T17:57:17.176Z,41.630831987332776
2023-02-09T18:01:24.116Z,41.948373415492064
2023-02-09T18:04:18.971Z,42.11476832902205
2023-02-09T18:07:20.649Z,42.46553890024765
2023-02-09T18:11:16.685Z,42.303069986271645
2023-02-09T18:14:18.968Z,42.21912670149817
2023-02-09T18:17:17.122Z,42.55816554668472
2023-02-09T18:21:15.929Z,42.52972787358525
2023-02-09T18:24:17.164Z,42.941451781602154
2023-02-09T18:27:17.893Z,43.1188178090159
2023-02-09T18:31:16.380Z,43.352346014603874
2023-02-09T18:34:16.541Z,43.55788793389002
2023-02-09T18:37:16.846Z,43.656875868581686
2023-02-09T18:41:15.981Z,43.74578169427223
2023-02-09T18:44:16.333Z,43.61822278194467
2023-02-09T18:47:16.307Z,43.706163394654176
2023-02-09T18:51:15.951Z,43.74502907394788
2023-02-09T18:54:16.253Z,43.78256034962272
2023-02-09T18:57:16.255Z,43.95514503681888
2023-02-09T19:01:19.169Z,44.11053407091381
2023-02-09T19:04:16.639Z,44.16015430985788
2023-02-09T19:07:17.179Z,44.18237529435386
2023-02-09T19:11:18.163Z,44.44745651046591
2023-02-09T19:14:48.826Z,44.13607344884428
2023-02-09T19:17:18.411Z,44.20265300937345
2023-02-09T19:21:16.625Z,44.6902061933117
2023-02-09T19:24:17.075Z,44.58480066417318
2023-02-09T19:27:18.780Z,44.6394026742385
2023-02-09T19:31:17.335Z,44.59356788654606
2023-02-09T19:34:16.606Z,44.55458553001195
2023-02-09T19:37:18.735Z,44.781663926874494
2023-02-09T19:41:17.118Z,44.75362687237077
2023-02-09T19:44:16.915Z,44.874972129968725
2023-02-09T19:47:16.850Z,44.89079170991533
2023-02-09T19:51:16.556Z,44.94122258818067
2023-02-09T19:54:17.598Z,44.91254652386115
2023-02-09T19:57:17.083Z,45.06231731020742
2023-02-09T20:01:17.263Z,45.46041697467084
2023-02-09T20:04:16.148Z,45.37087892635566
2023-02-09T20:07:16.093Z,45.77418624894439
2023-02-09T20:11:19.306Z,45.8345929851715
2023-02-09T20:14:17.032Z,45.723478949031175
2023-02-09T20:21:19.146Z,45.579103513637435
2023-02-09T20:24:17.047Z,45.68353066778443
2023-02-09T20:27:19.164Z,45.93710795046879
2023-02-09T20:31:18.898Z,45.887102789870646
2023-02-09T20:34:16.741Z,46.02012165347106
2023-02-09T20:37:16.684Z,46.11368803759032
2023-02-09T20:41:17.816Z,46.13446238315474
2023-02-09T21:01:18.607Z,46.80025797311862
2023-02-09T21:04:19.490Z,46.84360815648014
2023-02-09T21:07:21.836Z,46.88674511563935
2023-02-09T21:11:18.279Z,47.04580046911804
2023-02-09T21:14:27.446Z,47.25578705143549
2023-02-09T21:17:18.769Z,47.006395751739774
2023-02-09T21:21:17.133Z,47.336983106342046
2023-02-09T21:24:16.695Z,47.42475546338998
2023-02-09T21:27:17.148Z,47.46879696542934
2023-02-09T21:31:19.021Z,47.60541334287473
2023-02-09T21:34:16.892Z,47.80877713740312
2023-02-09T21:37:16.810Z,48.18897079204627
2023-02-09T21:42:26.190Z,48.337727936824635
2023-02-09T21:44:16.349Z,48.76644978262704
2023-02-09T21:47:16.582Z,48.98179465820723
2023-02-09T21:51:16.553Z,48.909359473496835
2023-02-09T21:54:17.493Z,49.018260540289766
2023-02-09T21:57:17.432Z,49.26092397170328
2023-02-09T22:01:16.956Z,49.26599204594459
2023-02-09T22:04:17.326Z,49.5836506357546
2023-02-09T22:07:17.246Z,49.406578515257365
2023-02-09T22:11:16.801Z,49.81336878008507
2023-02-09T22:14:16.723Z,49.796832630089426
2023-02-09T22:17:16.770Z,49.829333340966095
2023-02-09T22:21:17.046Z,49.949781004577716
2023-02-09T22:24:17.662Z,49.9933749251296
2023-02-09T22:27:16.726Z,50.07005417103584
2023-02-09T22:31:18.509Z,50.15157033598769
2023-02-09T22:34:16.856Z,50.28807326943923
2023-02-09T22:37:16.830Z,50.37010851065047
2023-02-09T22:41:23.011Z,50.22631402304695
2023-02-09T22:44:17.081Z,50.457266113493205
2023-02-09T22:47:16.751Z,50.2384926908622
2023-02-09T22:51:17.286Z,50.462179101628315
2023-02-09T22:54:19.351Z,50.39181108432695
2023-02-09T22:57:16.956Z,50.46367176098209
2023-02-09T23:01:16.992Z,50.27619326680949
2023-02-09T23:04:16.726Z,50.13289390191737
2023-02-09T23:07:16.294Z,50.24395477258929
2023-02-09T23:11:17.282Z,50.4652064648838
2023-02-09T23:14:16.987Z,50.18520176664458
2023-02-09T23:17:16.349Z,50.153187080069706
2023-02-09T23:21:18.021Z,49.90574207824229
2023-02-09T23:24:19.743Z,50.10468194759122
2023-02-09T23:27:16.984Z,50.03438573890428
2023-02-09T23:31:18.063Z,49.95218277372773
2023-02-09T23:34:19.196Z,49.93564685641222
2023-02-09T23:37:23.708Z,49.84187756648729
2023-02-09T23:41:17.416Z,49.76497144723858
2023-02-09T23:44:17.503Z,49.747518397309754
2023-02-09T23:47:17.257Z,49.962032501854075
2023-02-09T23:51:18.151Z,49.913831331356626
2023-02-09T23:54:16.899Z,49.90820578899634
2023-02-09T23:57:18.210Z,49.781782329887875
